createdAt,value
2022-12-13T00:03:38.404Z,3.15
2022-12-13T00:08:42.067Z,5.03
2022-12-13T00:13:47.279Z,4.22
2022-12-13T00:18:51.934Z,4.27
2022-12-13T00:23:55.274Z,4.35
2022-12-13T00:29:00.725Z,3.90
2022-12-13T00:34:03.533Z,2.50
2022-12-13T00:39:06.284Z,1.83
2022-12-13T00:44:10.220Z,4.37
2022-12-13T00:49:13.749Z,2.17
2022-12-13T00:54:17.298Z,3.75
2022-12-13T00:59:20.031Z,2.55
2022-12-13T01:04:22.615Z,2.72
2022-12-13T01:09:31.355Z,2.57
2022-12-13T01:14:38.861Z,2.85
2022-12-13T01:19:41.855Z,2.97
2022-12-13T01:24:44.965Z,2.00
2022-12-13T01:29:47.545Z,2.75
2022-12-13T01:34:50.136Z,2.47
2022-12-13T01:39:52.786Z,1.92
2022-12-13T01:45:06.527Z,2.30
2022-12-13T01:50:30.899Z,3.25
2022-12-13T01:55:41.837Z,1.98
2022-12-13T02:00:45.878Z,2.83
2022-12-13T02:06:00.512Z,3.05
2022-12-13T02:11:04.200Z,2.17
2022-12-13T02:16:25.380Z,1.48
2022-12-13T02:22:07.765Z,1.80
2022-12-13T02:27:16.376Z,2.23
2022-12-13T02:32:56.156Z,3.17
2022-12-13T02:38:22.963Z,2.80
2022-12-13T02:43:34.975Z,1.90
2022-12-13T02:48:40.099Z,3.10
2022-12-13T02:53:44.267Z,3.70
2022-12-13T02:58:52.107Z,2.83
2022-12-13T03:04:10.237Z,3.17
2022-12-13T03:09:24.818Z,2.42
2022-12-13T03:14:31.392Z,1.67
2022-12-13T03:19:34.561Z,4.10
2022-12-13T03:24:37.198Z,3.25
2022-12-13T03:29:40.235Z,3.28
2022-12-13T03:34:43.266Z,2.70
2022-12-13T03:39:47.979Z,2.25
2022-12-13T03:44:50.717Z,4.23
2022-12-13T03:49:54.324Z,3.42
2022-12-13T03:54:57.564Z,2.95
2022-12-13T04:00:00.214Z,1.92
2022-12-13T04:05:02.881Z,1.73
2022-12-13T04:10:25.241Z,1.60
2022-12-13T04:15:28.689Z,2.70
2022-12-13T04:20:31.538Z,1.48
2022-12-13T04:25:34.650Z,2.72
2022-12-13T04:30:37.981Z,2.22
2022-12-13T04:35:40.694Z,2.27
2022-12-13T04:40:46.508Z,3.05
2022-12-13T04:45:49.877Z,2.80
2022-12-13T04:50:53.053Z,2.28
2022-12-13T04:55:55.747Z,1.17
2022-12-13T05:00:58.481Z,3.03
2022-12-13T05:06:05.680Z,2.42
2022-12-13T05:11:35.796Z,2.35
2022-12-13T05:16:38.750Z,2.83
2022-12-13T05:21:41.376Z,2.40
2022-12-13T05:26:44.002Z,2.70
2022-12-13T05:31:46.967Z,1.63
2022-12-13T05:36:49.645Z,1.30
2022-12-13T05:41:53.088Z,2.28
2022-12-13T05:47:03.723Z,2.88
2022-12-13T05:52:06.402Z,2.07
2022-12-13T05:57:09.016Z,2.35
2022-12-13T06:02:16.891Z,1.75
2022-12-13T06:07:23.898Z,1.75
2022-12-13T06:12:31.671Z,2.28
2022-12-13T06:17:36.960Z,2.03
2022-12-13T06:22:39.573Z,1.05
2022-12-13T06:27:42.202Z,2.30
2022-12-13T06:32:49.843Z,3.95
2022-12-13T06:37:52.989Z,1.73
2022-12-13T06:42:55.677Z,3.37
2022-12-13T06:47:59.668Z,3.95
2022-12-13T06:53:02.331Z,1.95
2022-12-13T06:58:05.174Z,1.58
2022-12-13T07:03:09.031Z,4.13
2022-12-13T07:08:12.079Z,3.33
2022-12-13T07:13:14.843Z,2.28
2022-12-13T07:18:18.524Z,3.45
2022-12-13T07:23:24.670Z,2.10
2022-12-13T07:28:27.470Z,1.80
2022-12-13T07:33:30.365Z,2.20
2022-12-13T07:38:34.119Z,0.73
2022-12-13T07:43:37.219Z,1.45
2022-12-13T07:48:39.996Z,1.58
2022-12-13T07:53:42.753Z,2.13
2022-12-13T07:58:47.583Z,2.73
2022-12-13T08:03:50.577Z,3.17
2022-12-13T08:08:59.507Z,3.13
2022-12-13T08:14:02.357Z,2.72
2022-12-13T08:19:05.023Z,2.60
2022-12-13T08:24:15.444Z,3.33
2022-12-13T08:29:23.079Z,2.85
2022-12-13T08:34:36.816Z,3.15
2022-12-13T08:39:40.145Z,1.08
2022-12-13T08:44:43.260Z,2.30
2022-12-13T08:49:45.988Z,3.67
2022-12-13T08:54:48.707Z,3.58
2022-12-13T08:59:51.447Z,4.22
2022-12-13T09:04:54.168Z,2.85
2022-12-13T09:09:56.855Z,1.80
2022-12-13T09:15:01.248Z,3.70
2022-12-13T09:20:10.013Z,2.33
2022-12-13T09:25:37.370Z,4.65
2022-12-13T09:30:40.450Z,3.97
2022-12-13T09:35:43.133Z,2.92
2022-12-13T09:40:49.365Z,4.47
2022-12-13T09:45:53.153Z,3.80
2022-12-13T09:51:16.936Z,2.35
2022-12-13T09:56:24.248Z,2.10
2022-12-13T10:01:27.091Z,1.45
2022-12-13T10:06:32.913Z,3.60
2022-12-13T10:11:36.046Z,2.53
2022-12-13T10:16:46.316Z,2.85
2022-12-13T10:21:50.848Z,3.45
2022-12-13T10:26:58.246Z,3.72
2022-12-13T10:32:12.698Z,3.13
2022-12-13T10:37:24.483Z,3.95
2022-12-13T10:42:33.621Z,3.72
2022-12-13T10:47:37.936Z,3.58
2022-12-13T10:52:47.027Z,2.55
2022-12-13T10:57:54.718Z,3.00
2022-12-13T11:02:57.606Z,4.03
2022-12-13T11:08:15.111Z,3.42
2022-12-13T11:14:07.483Z,3.22
2022-12-13T11:19:25.397Z,2.88
2022-12-13T11:24:42.474Z,3.58
2022-12-13T11:30:13.477Z,4.77
2022-12-13T11:35:26.645Z,4.38
2022-12-13T11:40:43.425Z,3.05
2022-12-13T11:45:54.514Z,3.88
2022-12-13T11:51:00.296Z,4.15
2022-12-13T11:56:08.376Z,6.40
2022-12-13T12:01:18.246Z,5.63
2022-12-13T12:06:29.921Z,5.20
2022-12-13T12:11:46.715Z,4.22
2022-12-13T12:16:55.978Z,4.78
2022-12-13T12:22:20.325Z,3.53
2022-12-13T12:27:48.587Z,3.80
2022-12-13T12:33:16.245Z,3.10
2022-12-13T12:38:54.148Z,3.08
2022-12-13T12:44:15.995Z,4.03
2022-12-13T12:49:53.567Z,3.47
2022-12-13T12:55:23.145Z,3.60
2022-12-13T13:00:28.905Z,2.63
2022-12-13T13:05:45.375Z,3.47
2022-12-13T13:10:50.783Z,5.30
2022-12-13T13:15:56.013Z,4.07
2022-12-13T13:21:43.726Z,4.43
2022-12-13T13:26:58.076Z,3.25
2022-12-13T13:32:28.877Z,3.60
2022-12-13T13:37:47.817Z,4.25
2022-12-13T13:43:05.475Z,5.10
2022-12-13T13:48:30.009Z,4.20
2022-12-13T13:53:57.285Z,4.28
2022-12-13T13:59:24.568Z,4.20
2022-12-13T14:04:54.074Z,3.70
2022-12-13T14:10:24.054Z,5.30
2022-12-13T14:16:12.180Z,5.43
2022-12-13T14:21:57.902Z,5.03
2022-12-13T14:27:21.582Z,5.22
2022-12-13T14:32:27.527Z,5.97
2022-12-13T14:37:31.802Z,5.60
2022-12-13T14:42:34.946Z,6.00
2022-12-13T14:47:43.616Z,6.22
2022-12-13T14:52:47.815Z,6.13
2022-12-13T14:57:56.476Z,5.50
2022-12-13T15:03:02.954Z,5.93
2022-12-13T15:08:11.088Z,5.68
2022-12-13T15:13:44.476Z,5.25
2022-12-13T15:18:50.455Z,5.28
2022-12-13T15:23:58.713Z,5.88
2022-12-13T15:29:09.945Z,6.33
2022-12-13T15:34:30.205Z,5.80
2022-12-13T15:39:38.871Z,5.85
2022-12-13T15:45:03.396Z,5.68
2022-12-13T15:50:07.373Z,5.03
2022-12-13T15:55:10.068Z,5.03
2022-12-13T16:00:28.973Z,4.13
2022-12-13T16:05:40.818Z,6.10
2022-12-13T16:10:48.818Z,5.40
2022-12-13T16:15:59.899Z,5.45
2022-12-13T16:21:11.733Z,4.37
2022-12-13T16:26:15.426Z,4.25
2022-12-13T16:31:28.071Z,4.63
2022-12-13T16:36:31.258Z,5.28
2022-12-13T16:41:43.160Z,4.45
2022-12-13T16:47:14.155Z,4.83
2022-12-13T16:52:08.885Z,5.95
2022-12-13T16:57:11.624Z,4.45
2022-12-13T17:02:18.221Z,4.55
2022-12-13T17:07:21.033Z,6.65
2022-12-13T17:12:26.684Z,5.70
2022-12-13T17:17:29.356Z,4.85
2022-12-13T17:22:32.614Z,6.10
2022-12-13T17:27:36.126Z,5.47
2022-12-13T17:32:39.947Z,6.07
2022-12-13T17:37:43.862Z,6.30
2022-12-13T17:42:49.667Z,6.97
2022-12-13T17:47:52.376Z,5.03
2022-12-13T17:52:55.112Z,7.35
2022-12-13T17:58:04.125Z,7.60
2022-12-13T18:03:07.554Z,7.17
2022-12-13T18:08:10.391Z,7.22
2022-12-13T18:13:13.204Z,8.73
2022-12-13T18:18:16.445Z,9.15
2022-12-13T18:23:20.125Z,8.68
2022-12-13T18:28:22.847Z,9.27
2022-12-13T18:33:26.319Z,6.75
2022-12-13T18:38:36.245Z,9.00
2022-12-13T18:43:39.774Z,6.50
2022-12-13T18:48:42.802Z,7.15
2022-12-13T18:53:45.608Z,6.67
2022-12-13T18:58:49.374Z,8.00
2022-12-13T19:03:52.570Z,8.25
2022-12-13T19:08:57.737Z,7.72
2022-12-13T19:14:00.583Z,7.78
2022-12-13T19:19:03.757Z,7.00
2022-12-13T19:24:07.341Z,10.00
2022-12-13T19:29:10.140Z,8.15
2022-12-13T19:34:13.096Z,7.93
2022-12-13T19:39:16.168Z,6.63
2022-12-13T19:44:19.138Z,8.43
2022-12-13T19:49:21.858Z,8.25
2022-12-13T19:54:26.324Z,7.88
2022-12-13T19:59:29.515Z,7.57
2022-12-13T20:04:32.768Z,9.43
2022-12-13T20:09:36.988Z,7.83
2022-12-13T20:14:39.754Z,9.70
2022-12-13T20:19:42.886Z,7.82
2022-12-13T20:24:45.648Z,9.68
2022-12-13T20:29:50.869Z,7.55
2022-12-13T20:34:55.160Z,8.40
2022-12-13T20:40:00.112Z,7.57
2022-12-13T20:45:04.351Z,7.50
2022-12-13T20:50:07.790Z,7.88
2022-12-13T20:55:10.566Z,7.10
2022-12-13T21:00:14.215Z,7.60
2022-12-13T21:05:20.770Z,8.85
2022-12-13T21:10:23.847Z,9.05
2022-12-13T21:15:26.768Z,10.13
2022-12-13T21:20:29.812Z,9.18
2022-12-13T21:25:32.591Z,10.97
2022-12-13T21:30:35.537Z,12.90
2022-12-13T21:35:38.274Z,11.07
2022-12-13T21:40:49.610Z,5.43
2022-12-13T21:45:52.331Z,6.85
2022-12-13T21:50:55.111Z,8.33
2022-12-13T21:56:16.574Z,7.38
2022-12-13T22:01:19.394Z,8.38
2022-12-13T22:06:22.112Z,9.45
2022-12-13T22:11:24.795Z,7.00
2022-12-13T22:16:27.512Z,10.00
2022-12-13T22:21:31.266Z,9.10
2022-12-13T22:26:33.893Z,8.93
2022-12-13T22:31:36.771Z,12.15
2022-12-13T22:36:39.647Z,11.27
2022-12-13T22:41:43.825Z,10.03
2022-12-13T22:46:47.451Z,11.45
2022-12-13T22:51:50.211Z,5.00
2022-12-13T22:56:52.856Z,10.10
2022-12-13T23:02:02.198Z,7.00
2022-12-13T23:07:08.074Z,15.90
2022-12-13T23:12:30.388Z,12.15
2022-12-13T23:17:32.988Z,15.05
2022-12-13T23:22:35.589Z,8.65
2022-12-13T23:27:38.267Z,12.25
2022-12-13T23:32:40.985Z,14.33
2022-12-13T23:37:43.906Z,9.85
2022-12-13T23:42:46.722Z,14.82
2022-12-13T23:47:49.677Z,15.30
2022-12-13T23:52:52.238Z,13.05
2022-12-13T23:57:55.134Z,12.50
